Аэропорт
Магнитогорск (USCM)

 USCM / MQF
ЗЦ Екатеринбург
Екатеринбург (USSS)
Челябинск (USCC)
 53.39310, 58.75570  / 1430 ft

 USCM 210100Z 15004MPS 7000 BKN040 M08/M09 Q1031 R18/090065 NOSIG RMK QFE735
 TAF USCM 202300Z 2100/2109 19003G10MPS 5000 BR SCT030 TEMPO 2100/2106 21003G08MPS 0300 FZFG VV011
показать схемы
Название сценария Тип сценария Flight Simulator 9 Flight Simulator X Prepar3D v2 Prepar3D v3 Prepar3D v4 xPlane
Магнитогорск бесплатный


2019 © VATRUS division (Privacy Policy)